createdAt,value
2019-03-11T00:02:24.959Z,39.72
2019-03-11T00:04:55.938Z,40.15
2019-03-11T00:07:27.001Z,40.40
2019-03-11T00:09:58.072Z,40.75
2019-03-11T00:12:29.148Z,40.83
2019-03-11T00:15:00.661Z,41.98
2019-03-11T00:17:31.954Z,42.62
2019-03-11T00:20:04.248Z,42.81
2019-03-11T00:22:35.258Z,43.33
2019-03-11T00:25:07.220Z,43.17
2019-03-11T00:27:38.869Z,43.37
2019-03-11T00:30:10.826Z,43.22
2019-03-11T00:32:42.170Z,43.83
2019-03-11T00:35:13.558Z,43.58
2019-03-11T00:37:45.189Z,43.59
2019-03-11T00:40:16.554Z,43.52
2019-03-11T00:42:47.894Z,43.40
2019-03-11T00:45:19.388Z,43.51
2019-03-11T00:48:01.056Z,43.72
2019-03-11T00:50:23.931Z,43.47
2019-03-11T00:52:55.323Z,43.88
2019-03-11T00:55:26.732Z,43.92
2019-03-11T00:57:58.102Z,43.56
2019-03-11T01:00:32.176Z,43.80
2019-03-11T01:03:03.605Z,43.41
2019-03-11T01:05:34.912Z,43.50
2019-03-11T01:08:06.097Z,43.53
2019-03-11T01:10:37.141Z,43.46
2019-03-11T01:13:08.418Z,43.36
2019-03-11T01:15:39.470Z,43.83
2019-03-11T01:18:10.617Z,44.10
2019-03-11T01:20:42.792Z,43.93
2019-03-11T01:23:13.877Z,43.81
2019-03-11T01:25:45.172Z,43.88
2019-03-11T01:28:16.552Z,43.50
2019-03-11T01:30:47.574Z,43.59
2019-03-11T01:33:18.753Z,43.31
2019-03-11T01:35:49.992Z,43.36
2019-03-11T01:38:20.905Z,43.46
2019-03-11T01:40:52.019Z,43.66
2019-03-11T01:43:23.354Z,43.80
2019-03-11T01:45:54.687Z,43.49
2019-03-11T01:48:26.027Z,43.44
2019-03-11T01:50:56.943Z,43.41
2019-03-11T01:53:27.870Z,43.52
2019-03-11T01:56:00.021Z,43.71
2019-03-11T01:58:31.356Z,44.40
2019-03-11T02:01:02.413Z,44.33
2019-03-11T02:03:34.088Z,45.17
2019-03-11T02:06:05.503Z,45.57
2019-03-11T02:08:36.559Z,45.93
2019-03-11T02:11:08.170Z,46.10
2019-03-11T02:13:39.383Z,46.36
2019-03-11T02:16:10.880Z,46.64
2019-03-11T02:18:41.950Z,46.87
2019-03-11T02:21:13.367Z,47.56
2019-03-11T02:23:44.901Z,47.52
2019-03-11T02:26:16.303Z,47.36
2019-03-11T02:28:47.678Z,47.61
2019-03-11T02:31:19.453Z,48.42
2019-03-11T02:33:50.925Z,48.74
2019-03-11T02:36:22.498Z,48.98
2019-03-11T02:38:54.222Z,48.47
2019-03-11T02:41:25.656Z,48.47
2019-03-11T02:43:57.399Z,48.55
2019-03-11T02:46:28.949Z,48.56
2019-03-11T02:49:00.435Z,48.59
2019-03-11T02:51:32.159Z,48.59
2019-03-11T02:54:03.629Z,48.55
2019-03-11T02:56:35.249Z,48.37
2019-03-11T02:59:06.707Z,48.90
2019-03-11T03:01:52.169Z,48.72
2019-03-11T03:04:31.686Z,48.86
2019-03-11T03:07:03.182Z,48.98
2019-03-11T03:09:34.735Z,48.83
2019-03-11T03:12:06.399Z,48.62
2019-03-11T03:14:37.989Z,48.65
2019-03-11T03:17:09.215Z,48.91
2019-03-11T03:19:40.924Z,48.88
2019-03-11T03:22:12.467Z,49.15
2019-03-11T03:24:43.919Z,49.94
2019-03-11T03:27:15.465Z,49.95
2019-03-11T03:29:47.069Z,50.11
2019-03-11T03:32:18.616Z,50.21
2019-03-11T03:34:50.297Z,50.24
2019-03-11T03:37:21.502Z,50.14
2019-03-11T03:39:52.903Z,50.15
2019-03-11T03:42:24.472Z,50.23
2019-03-11T03:45:21.849Z,50.17
2019-03-11T03:47:53.429Z,50.30
2019-03-11T03:50:25.132Z,50.24
2019-03-11T03:52:56.733Z,50.19
2019-03-11T03:55:28.350Z,50.21
2019-03-11T03:57:59.618Z,50.18
2019-03-11T04:00:31.476Z,50.54
2019-03-11T04:03:03.148Z,50.82
2019-03-11T04:05:34.815Z,51.55
2019-03-11T04:08:06.519Z,51.65
2019-03-11T04:10:38.218Z,51.57
2019-03-11T04:13:10.001Z,51.78
2019-03-11T04:15:42.587Z,51.79
2019-03-11T04:18:14.240Z,51.79
2019-03-11T04:20:45.862Z,52.45
2019-03-11T04:23:17.517Z,52.79
2019-03-11T04:25:49.290Z,52.84
2019-03-11T04:28:20.833Z,52.25
2019-03-11T04:30:52.312Z,52.62
2019-03-11T04:33:23.903Z,53.24
2019-03-11T04:35:55.231Z,53.14
2019-03-11T04:38:26.836Z,53.00
2019-03-11T04:40:58.474Z,53.23
2019-03-11T04:43:29.948Z,53.24
2019-03-11T04:46:01.461Z,53.28
2019-03-11T04:48:33.007Z,52.83
2019-03-11T04:51:04.567Z,52.83
2019-03-11T04:53:35.986Z,52.91
2019-03-11T04:56:07.207Z,52.97
2019-03-11T04:58:38.853Z,53.88
2019-03-11T05:01:10.405Z,53.01
2019-03-11T05:03:41.767Z,53.00
2019-03-11T05:06:13.020Z,53.00
2019-03-11T05:08:44.806Z,53.88
2019-03-11T05:11:16.475Z,53.78
2019-03-11T05:13:48.217Z,53.60
2019-03-11T05:16:19.892Z,53.77
2019-03-11T05:18:51.442Z,53.50
2019-03-11T05:21:23.058Z,53.81
2019-03-11T05:23:54.908Z,54.11
2019-03-11T05:26:27.089Z,53.89
2019-03-11T05:28:58.392Z,54.00
2019-03-11T05:31:30.119Z,53.75
2019-03-11T05:34:01.729Z,53.94
2019-03-11T05:36:33.169Z,53.91
2019-03-11T05:39:05.680Z,53.78
2019-03-11T05:41:37.377Z,53.10
2019-03-11T05:44:09.079Z,52.91
2019-03-11T05:46:40.643Z,53.29
2019-03-11T05:49:12.046Z,53.78
2019-03-11T05:51:43.792Z,53.83
2019-03-11T05:54:15.339Z,53.71
2019-03-11T05:56:46.694Z,53.90
2019-03-11T05:59:18.278Z,53.71
2019-03-11T06:01:49.748Z,52.96
2019-03-11T06:04:21.284Z,51.90
2019-03-11T06:06:53.160Z,50.97
2019-03-11T06:09:24.349Z,50.27
2019-03-11T06:11:55.769Z,50.10
2019-03-11T06:14:27.067Z,49.00
2019-03-11T06:16:58.442Z,47.06
2019-03-11T06:19:29.676Z,46.16
2019-03-11T06:22:10.607Z,46.45
2019-03-11T06:24:41.767Z,46.71
2019-03-11T06:27:12.997Z,45.04
2019-03-11T06:29:45.238Z,43.73
2019-03-11T06:32:16.336Z,43.73
2019-03-11T06:34:47.558Z,43.94
2019-03-11T06:37:18.989Z,44.57
2019-03-11T06:39:50.196Z,45.53
2019-03-11T06:42:21.476Z,45.40
2019-03-11T06:44:52.430Z,46.14
2019-03-11T06:47:23.617Z,45.96
2019-03-11T06:49:54.660Z,46.14
2019-03-11T06:52:25.616Z,45.51
2019-03-11T06:54:58.095Z,44.88
2019-03-11T06:57:29.442Z,44.40
2019-03-11T07:00:01.784Z,46.15
2019-03-11T07:02:32.936Z,45.10
2019-03-11T07:05:04.245Z,44.88
2019-03-11T07:07:35.610Z,44.93
2019-03-11T07:10:07.800Z,44.43
2019-03-11T07:12:39.040Z,44.00
2019-03-11T07:15:10.989Z,43.64
2019-03-11T07:17:42.514Z,43.64
2019-03-11T07:20:14.001Z,42.64
2019-03-11T07:22:45.490Z,42.08
2019-03-11T07:25:16.904Z,42.03
2019-03-11T07:27:48.263Z,41.56
2019-03-11T07:30:19.777Z,41.50
2019-03-11T07:32:53.144Z,42.56
2019-03-11T07:35:24.689Z,40.55
2019-03-11T07:37:56.069Z,41.04
2019-03-11T07:40:30.077Z,40.40
2019-03-11T07:43:00.723Z,40.90
2019-03-11T07:45:32.113Z,40.94
2019-03-11T07:48:03.135Z,40.72
2019-03-11T07:50:34.496Z,41.77
2019-03-11T07:53:06.030Z,41.92
2019-03-11T07:55:38.483Z,41.40
2019-03-11T07:58:09.784Z,40.51
2019-03-11T08:00:40.967Z,41.42
2019-03-11T08:03:12.486Z,41.02
2019-03-11T08:05:43.902Z,40.26
2019-03-11T08:08:15.343Z,39.99
2019-03-11T08:10:46.873Z,39.98
2019-03-11T08:13:18.232Z,40.89
2019-03-11T08:15:49.775Z,40.56
2019-03-11T08:18:21.241Z,40.32
2019-03-11T08:20:52.253Z,40.00
2019-03-11T08:23:23.712Z,39.36
2019-03-11T08:25:55.080Z,40.02
2019-03-11T08:28:26.313Z,38.76
2019-03-11T08:30:57.648Z,38.67
2019-03-11T08:33:28.944Z,38.93
2019-03-11T08:36:00.325Z,39.51
2019-03-11T08:38:31.590Z,39.76
2019-03-11T08:41:02.879Z,38.70
2019-03-11T08:43:34.223Z,39.45
2019-03-11T08:46:05.600Z,39.36
2019-03-11T08:48:36.776Z,39.36
2019-03-11T08:51:08.242Z,40.52
2019-03-11T08:53:39.277Z,41.25
2019-03-11T08:56:10.429Z,41.88
2019-03-11T08:58:41.806Z,41.88
2019-03-11T09:01:12.987Z,42.24
2019-03-11T09:03:44.196Z,43.02
2019-03-11T09:06:15.290Z,42.96
2019-03-11T09:08:46.479Z,42.96
2019-03-11T09:11:17.753Z,41.71
2019-03-11T09:13:49.405Z,41.45
2019-03-11T09:16:20.998Z,41.20
2019-03-11T09:18:52.418Z,41.65
2019-03-11T09:21:23.688Z,42.62
2019-03-11T09:23:54.953Z,40.29
2019-03-11T09:26:26.443Z,40.26
2019-03-11T09:28:57.514Z,40.18
2019-03-11T09:31:28.782Z,41.13
2019-03-11T09:34:00.091Z,41.22
2019-03-11T09:36:31.359Z,41.47
2019-03-11T09:39:02.720Z,41.96
2019-03-11T09:41:35.564Z,42.10
2019-03-11T09:44:06.856Z,42.34
2019-03-11T09:46:38.150Z,41.00
2019-03-11T09:49:09.578Z,41.00
2019-03-11T09:51:40.945Z,40.82
2019-03-11T09:54:12.357Z,41.21
2019-03-11T09:56:44.205Z,41.35
2019-03-11T09:59:15.690Z,41.66
2019-03-11T10:01:47.044Z,41.66
2019-03-11T10:04:18.378Z,41.90
2019-03-11T10:06:49.763Z,42.53
2019-03-11T10:09:22.473Z,43.10
2019-03-11T10:11:53.902Z,42.75
2019-03-11T10:14:25.352Z,43.82
2019-03-11T10:16:56.996Z,43.60
2019-03-11T10:19:28.338Z,43.60
2019-03-11T10:21:59.792Z,44.59
2019-03-11T10:24:31.267Z,44.48
2019-03-11T10:27:02.524Z,45.82
2019-03-11T10:29:33.902Z,45.82
2019-03-11T10:32:05.244Z,45.46
2019-03-11T10:34:36.740Z,45.46
2019-03-11T10:37:08.030Z,44.64
2019-03-11T10:39:39.407Z,44.78
2019-03-11T10:42:10.489Z,44.81
2019-03-11T10:44:41.775Z,44.22
2019-03-11T10:47:12.856Z,44.73
2019-03-11T10:49:43.983Z,44.20
2019-03-11T10:52:15.288Z,43.82
2019-03-11T10:54:46.779Z,44.25
2019-03-11T10:57:18.171Z,43.84
2019-03-11T10:59:49.496Z,44.56
2019-03-11T11:02:20.863Z,44.19
2019-03-11T11:04:52.197Z,44.23
2019-03-11T11:07:23.709Z,45.99
2019-03-11T11:09:54.994Z,45.99
2019-03-11T11:12:26.224Z,44.90
2019-03-11T11:14:57.676Z,44.90
2019-03-11T11:17:28.979Z,44.60
2019-03-11T11:20:03.650Z,44.54
2019-03-11T11:22:35.054Z,44.47
2019-03-11T11:25:06.839Z,44.10
2019-03-11T11:27:38.327Z,43.63
2019-03-11T11:30:12.760Z,43.91
2019-03-11T11:32:44.068Z,43.46
2019-03-11T11:35:17.044Z,43.79
2019-03-11T11:37:48.625Z,44.17
2019-03-11T11:40:24.258Z,44.29
2019-03-11T11:42:55.927Z,43.81
2019-03-11T11:45:27.268Z,43.39
2019-03-11T11:47:59.763Z,43.23
2019-03-11T11:50:31.115Z,43.37
2019-03-11T11:53:02.074Z,44.04
2019-03-11T11:55:33.242Z,44.03
2019-03-11T11:58:04.201Z,43.74
2019-03-11T12:00:36.173Z,42.73
2019-03-11T12:03:07.235Z,41.80
2019-03-11T12:05:38.223Z,41.73
2019-03-11T12:08:09.359Z,42.13
2019-03-11T12:10:40.433Z,41.20
2019-03-11T12:13:11.609Z,41.92
2019-03-11T12:15:42.869Z,41.80
2019-03-11T12:18:15.698Z,42.07
2019-03-11T12:20:47.110Z,42.63
2019-03-11T12:23:18.759Z,42.68
2019-03-11T12:25:49.835Z,42.76
2019-03-11T12:28:20.884Z,42.85
2019-03-11T12:30:52.044Z,44.35
2019-03-11T12:33:23.317Z,43.09
2019-03-11T12:35:54.540Z,43.93
2019-03-11T12:38:25.803Z,43.53
2019-03-11T12:40:56.983Z,44.51
2019-03-11T12:43:28.268Z,45.41
2019-03-11T12:45:59.271Z,44.15
2019-03-11T12:48:30.688Z,44.21
2019-03-11T12:51:01.779Z,44.14
2019-03-11T12:53:33.297Z,43.68
2019-03-11T12:56:05.795Z,44.35
2019-03-11T12:58:41.401Z,44.34
2019-03-11T13:01:10.010Z,44.54
2019-03-11T13:03:41.409Z,44.39
2019-03-11T13:06:13.050Z,44.78
2019-03-11T13:08:44.306Z,43.70
2019-03-11T13:11:15.632Z,44.04
2019-03-11T13:13:46.832Z,43.47
2019-03-11T13:16:18.209Z,42.93
2019-03-11T13:18:51.195Z,43.38
2019-03-11T13:21:28.261Z,43.06
2019-03-11T13:23:59.560Z,43.82
2019-03-11T13:26:30.862Z,43.78
2019-03-11T13:29:02.175Z,43.70
2019-03-11T13:31:33.440Z,44.16
2019-03-11T13:34:04.997Z,43.74
2019-03-11T13:36:36.497Z,44.44
2019-03-11T13:39:09.743Z,45.84
2019-03-11T13:41:41.257Z,45.74
2019-03-11T13:44:12.823Z,45.85
2019-03-11T13:46:44.064Z,46.86
2019-03-11T13:49:15.257Z,47.27
2019-03-11T13:51:46.752Z,47.57
2019-03-11T13:54:17.780Z,47.57
2019-03-11T13:56:49.089Z,49.04
2019-03-11T13:59:20.519Z,49.04
2019-03-11T14:01:51.945Z,49.67
2019-03-11T14:04:23.375Z,50.33
2019-03-11T14:06:54.756Z,50.33
2019-03-11T14:09:25.912Z,50.31
2019-03-11T14:11:57.149Z,50.72
2019-03-11T14:14:28.344Z,51.01
2019-03-11T14:16:59.679Z,51.46
2019-03-11T14:19:30.933Z,51.54
2019-03-11T14:22:04.898Z,52.15
2019-03-11T14:24:36.206Z,52.26
2019-03-11T14:27:07.448Z,52.29
2019-03-11T14:29:38.939Z,52.08
2019-03-11T14:32:10.629Z,51.71
2019-03-11T14:34:41.891Z,52.13
2019-03-11T14:37:13.503Z,52.41
2019-03-11T14:39:44.939Z,52.25
2019-03-11T14:42:16.247Z,52.78
2019-03-11T14:44:47.409Z,53.15
2019-03-11T14:47:18.634Z,53.04
2019-03-11T14:49:49.708Z,53.22
2019-03-11T14:52:20.941Z,53.83
2019-03-11T14:54:52.292Z,54.13
2019-03-11T14:57:23.757Z,53.96
2019-03-11T14:59:54.877Z,54.42
2019-03-11T15:02:26.154Z,54.56
2019-03-11T15:04:57.611Z,54.49
2019-03-11T15:07:28.979Z,55.42
2019-03-11T15:10:00.059Z,55.20
2019-03-11T15:12:31.851Z,55.69
2019-03-11T15:15:03.759Z,55.89
2019-03-11T15:17:35.132Z,55.90
2019-03-11T15:20:07.161Z,55.95
2019-03-11T15:22:38.882Z,56.96
2019-03-11T15:25:11.979Z,57.21
2019-03-11T15:27:43.433Z,57.70
2019-03-11T15:30:16.589Z,57.72
2019-03-11T15:32:48.201Z,58.46
2019-03-11T15:35:20.593Z,58.62
2019-03-11T15:37:53.219Z,59.63
2019-03-11T15:40:24.595Z,60.04
2019-03-11T15:42:58.451Z,60.55
2019-03-11T15:45:37.987Z,62.39
2019-03-11T15:48:03.643Z,62.98
2019-03-11T15:50:35.438Z,62.98
2019-03-11T15:53:06.902Z,63.47
2019-03-11T15:55:38.681Z,63.94
2019-03-11T15:58:10.104Z,63.63
2019-03-11T16:00:41.807Z,64.12
2019-03-11T16:03:13.571Z,64.50
2019-03-11T16:05:45.055Z,64.58
2019-03-11T16:08:16.673Z,64.64
2019-03-11T16:10:48.086Z,64.81
2019-03-11T16:13:19.622Z,65.09
2019-03-11T16:15:51.278Z,65.19
2019-03-11T16:18:22.799Z,65.62
2019-03-11T16:20:57.145Z,66.23
2019-03-11T16:23:28.448Z,66.64
2019-03-11T16:25:59.919Z,66.48
2019-03-11T16:28:31.540Z,67.63
2019-03-11T16:31:02.908Z,68.69
2019-03-11T16:33:34.339Z,69.79
2019-03-11T16:36:05.626Z,71.06
2019-03-11T16:38:36.972Z,72.01
2019-03-11T16:41:08.502Z,72.69
2019-03-11T16:43:39.764Z,73.06
2019-03-11T16:46:11.285Z,74.22
2019-03-11T16:48:42.745Z,74.66
2019-03-11T16:51:13.985Z,74.68
2019-03-11T16:53:45.216Z,73.85
2019-03-11T16:56:16.888Z,74.18
2019-03-11T16:58:48.071Z,73.71
2019-03-11T17:01:19.383Z,73.75
2019-03-11T17:03:50.753Z,74.44
2019-03-11T17:06:22.429Z,73.77
2019-03-11T17:08:53.906Z,74.16
2019-03-11T17:11:25.283Z,74.11
2019-03-11T17:13:57.567Z,74.07
2019-03-11T17:16:28.735Z,74.68
2019-03-11T17:19:01.407Z,74.21
2019-03-11T17:21:33.047Z,74.32
2019-03-11T17:24:04.538Z,74.49
2019-03-11T17:26:35.816Z,74.61
2019-03-11T17:29:07.101Z,73.99
2019-03-11T17:31:38.617Z,74.53
2019-03-11T17:34:09.993Z,75.52
2019-03-11T17:36:41.456Z,76.75
2019-03-11T17:39:13.108Z,76.36
2019-03-11T17:41:45.402Z,77.50
2019-03-11T17:44:17.165Z,77.93
2019-03-11T17:46:48.730Z,77.57
2019-03-11T17:49:20.211Z,77.64
2019-03-11T17:51:51.836Z,77.88
2019-03-11T17:54:23.329Z,78.88
2019-03-11T17:56:54.796Z,78.30
2019-03-11T17:59:26.196Z,78.37
2019-03-11T18:01:57.882Z,78.47
2019-03-11T18:04:29.313Z,78.18
2019-03-11T18:07:00.867Z,77.79
2019-03-11T18:09:32.307Z,77.85
2019-03-11T18:12:03.972Z,78.37
2019-03-11T18:14:35.498Z,78.74
2019-03-11T18:17:06.982Z,78.84
2019-03-11T18:19:38.238Z,78.80
2019-03-11T18:22:09.582Z,79.21
2019-03-11T18:24:41.036Z,79.48
2019-03-11T18:27:12.509Z,79.44
2019-03-11T18:29:43.953Z,78.88
2019-03-11T18:32:16.498Z,79.38
2019-03-11T18:34:48.009Z,79.55
2019-03-11T18:37:19.384Z,80.62
2019-03-11T18:39:50.646Z,80.04
2019-03-11T18:42:26.282Z,80.81
2019-03-11T18:44:54.995Z,81.12
2019-03-11T18:47:26.448Z,80.73
2019-03-11T18:49:57.703Z,80.95
2019-03-11T18:52:29.406Z,80.45
2019-03-11T18:55:00.868Z,80.15
2019-03-11T18:57:32.031Z,79.53
2019-03-11T19:00:03.645Z,79.25
2019-03-11T19:02:36.819Z,79.42
2019-03-11T19:05:09.699Z,79.71
2019-03-11T19:07:41.237Z,79.82
2019-03-11T19:10:12.960Z,79.85
2019-03-11T19:12:44.440Z,80.33
2019-03-11T19:15:17.641Z,80.59
2019-03-11T19:17:49.224Z,81.22
2019-03-11T19:20:20.842Z,81.34
2019-03-11T19:22:52.444Z,81.17
2019-03-11T19:25:23.948Z,81.04
2019-03-11T19:27:55.701Z,80.93
2019-03-11T19:30:27.327Z,81.02
2019-03-11T19:32:58.876Z,81.49
2019-03-11T19:35:30.419Z,81.28
2019-03-11T19:38:02.205Z,80.83
2019-03-11T19:40:33.667Z,80.98
2019-03-11T19:43:05.220Z,81.47
2019-03-11T19:45:36.922Z,81.51
2019-03-11T19:48:08.751Z,81.48
2019-03-11T19:50:40.123Z,81.88
2019-03-11T19:53:11.777Z,81.94
2019-03-11T19:55:43.517Z,81.90
2019-03-11T19:58:14.969Z,82.31
2019-03-11T20:00:46.501Z,82.10
2019-03-11T20:03:23.977Z,82.38
2019-03-11T20:05:53.806Z,82.60
2019-03-11T20:08:24.292Z,82.10
2019-03-11T20:10:55.802Z,82.30
2019-03-11T20:13:27.320Z,82.31
2019-03-11T20:15:58.660Z,81.94
2019-03-11T20:18:30.436Z,82.68
2019-03-11T20:21:01.988Z,81.53
2019-03-11T20:23:33.686Z,81.87
2019-03-11T20:26:05.361Z,81.28
2019-03-11T20:28:36.760Z,80.91
2019-03-11T20:31:08.338Z,80.48
2019-03-11T20:33:39.908Z,80.28
2019-03-11T20:36:20.862Z,80.65
2019-03-11T20:38:44.609Z,81.42
2019-03-11T20:41:16.466Z,81.37
2019-03-11T20:43:47.766Z,80.86
2019-03-11T20:46:19.167Z,80.93
2019-03-11T20:48:50.607Z,81.72
2019-03-11T20:51:21.849Z,81.61
2019-03-11T20:53:53.218Z,81.32
2019-03-11T20:56:24.427Z,81.54
2019-03-11T20:58:55.813Z,81.34
2019-03-11T21:01:27.756Z,81.70
2019-03-11T21:03:59.284Z,81.57
2019-03-11T21:06:30.818Z,81.43
2019-03-11T21:09:02.361Z,82.18
2019-03-11T21:11:35.555Z,81.66
2019-03-11T21:14:08.829Z,81.66
2019-03-11T21:16:41.326Z,81.86
2019-03-11T21:19:12.617Z,81.43
2019-03-11T21:21:43.842Z,81.73
2019-03-11T21:24:15.570Z,81.73
2019-03-11T21:26:47.309Z,81.33
2019-03-11T21:29:19.011Z,81.66
2019-03-11T21:31:50.695Z,80.79
2019-03-11T21:34:22.894Z,80.52
2019-03-11T21:36:54.594Z,80.24
2019-03-11T21:39:26.159Z,80.29
2019-03-11T21:41:57.788Z,80.58
2019-03-11T21:44:29.432Z,80.69
2019-03-11T21:47:00.772Z,80.27
2019-03-11T21:49:32.192Z,81.30
2019-03-11T21:52:03.695Z,80.99
2019-03-11T21:54:35.432Z,81.26
2019-03-11T21:57:07.247Z,80.71
2019-03-11T21:59:38.969Z,81.08
2019-03-11T22:02:10.533Z,80.99
2019-03-11T22:04:41.829Z,80.92
2019-03-11T22:07:13.621Z,80.91
2019-03-11T22:09:45.366Z,80.30
2019-03-11T22:12:17.063Z,79.94
2019-03-11T22:14:48.628Z,80.28
2019-03-11T22:17:20.218Z,80.21
2019-03-11T22:19:51.969Z,80.29
2019-03-11T22:22:23.432Z,79.82
2019-03-11T22:24:54.809Z,80.77
2019-03-11T22:27:26.145Z,81.05
2019-03-11T22:29:57.797Z,81.09
2019-03-11T22:32:29.208Z,80.62
2019-03-11T22:35:12.194Z,81.04
2019-03-11T22:37:33.824Z,81.12
2019-03-11T22:40:06.074Z,80.89
2019-03-11T22:42:37.695Z,81.37
2019-03-11T22:45:10.245Z,81.51
2019-03-11T22:47:41.631Z,81.74
2019-03-11T22:50:13.083Z,81.42
2019-03-11T22:52:44.735Z,81.85
2019-03-11T22:55:17.088Z,81.70
2019-03-11T22:57:48.911Z,82.38
2019-03-11T23:00:32.646Z,81.71
2019-03-11T23:03:06.945Z,81.84
2019-03-11T23:05:56.513Z,82.06
2019-03-11T23:08:13.119Z,81.51
2019-03-11T23:10:44.834Z,81.74
2019-03-11T23:13:16.591Z,81.82
2019-03-11T23:15:48.172Z,82.40
2019-03-11T23:18:19.593Z,82.71
2019-03-11T23:20:51.029Z,82.78
2019-03-11T23:23:22.242Z,83.00
2019-03-11T23:25:53.618Z,82.11
2019-03-11T23:28:25.355Z,82.20
2019-03-11T23:30:57.196Z,81.96
2019-03-11T23:33:28.731Z,81.46
2019-03-11T23:36:00.072Z,81.57
2019-03-11T23:38:31.471Z,81.70
2019-03-11T23:41:02.914Z,82.52
2019-03-11T23:43:34.446Z,82.08
2019-03-11T23:46:05.772Z,82.06
2019-03-11T23:48:37.053Z,82.52
2019-03-11T23:51:08.270Z,82.81
2019-03-11T23:53:39.571Z,83.21
2019-03-11T23:56:10.973Z,83.45
2019-03-11T23:58:42.196Z,83.56
